createdAt,value
2023-05-14T00:00:51.571Z,100091.78
2023-05-14T00:03:21.686Z,100061.69
2023-05-14T00:05:50.221Z,100064.34
2023-05-14T00:08:18.648Z,100061.09
2023-05-14T00:10:47.173Z,100053.38
2023-05-14T00:13:15.643Z,100060.00
2023-05-14T00:15:44.613Z,100078.94
2023-05-14T00:18:13.457Z,100068.50
2023-05-14T00:20:43.812Z,100072.47
2023-05-14T00:23:12.336Z,100054.09
2023-05-14T00:25:40.860Z,100059.91
2023-05-14T00:28:09.378Z,100052.41
2023-05-14T00:30:37.896Z,100064.38
2023-05-14T00:33:06.423Z,100070.75
2023-05-14T00:35:35.407Z,100063.25
2023-05-14T00:38:05.649Z,100057.38
2023-05-14T00:40:34.231Z,100051.47
2023-05-14T00:43:02.717Z,100055.47
2023-05-14T00:45:31.251Z,100055.47
2023-05-14T00:47:59.950Z,100047.19
2023-05-14T00:50:28.787Z,100065.84
2023-05-14T00:52:57.329Z,100047.91
2023-05-14T00:55:27.872Z,100057.22
2023-05-14T00:57:59.474Z,100047.06
2023-05-14T01:00:28.118Z,100045.22
2023-05-14T01:02:56.660Z,100053.69
2023-05-14T01:05:31.156Z,100045.97
2023-05-14T01:08:06.455Z,100034.75
2023-05-14T01:10:45.618Z,100040.34
2023-05-14T01:13:21.214Z,100038.97
2023-05-14T01:15:50.657Z,100037.59
2023-05-14T01:18:20.849Z,100037.31
2023-05-14T01:20:52.254Z,100033.84
2023-05-14T01:23:22.263Z,100033.28
2023-05-14T01:25:50.890Z,100041.53
2023-05-14T01:28:21.721Z,100028.69
2023-05-14T01:30:56.452Z,100031.63
2023-05-14T01:33:29.001Z,100029.72
2023-05-14T01:35:58.585Z,100035.03
2023-05-14T01:38:30.807Z,100032.88
2023-05-14T01:41:00.291Z,100029.41
2023-05-14T01:43:29.893Z,100030.72
2023-05-14T01:45:58.418Z,100038.97
2023-05-14T01:48:26.884Z,100033.06
2023-05-14T01:50:55.196Z,100036.22
2023-05-14T01:53:23.569Z,100032.75
2023-05-14T01:55:53.312Z,100033.25
2023-05-14T01:58:21.717Z,100038.03
2023-05-14T02:00:50.117Z,100024.16
2023-05-14T02:03:18.624Z,100029.75
2023-05-14T02:05:47.043Z,100026.50
2023-05-14T02:08:15.868Z,100025.97
2023-05-14T02:10:44.276Z,100025.13
2023-05-14T02:13:14.027Z,100026.69
2023-05-14T02:15:42.534Z,100026.16
2023-05-14T02:18:10.955Z,100016.53
2023-05-14T02:20:39.398Z,100030.09
2023-05-14T02:23:08.128Z,100021.53
2023-05-14T02:25:36.736Z,100021.00
2023-05-14T02:28:05.364Z,100020.41
2023-05-14T02:30:35.106Z,100018.22
2023-05-14T02:33:03.722Z,100016.88
2023-05-14T02:35:32.863Z,100019.78
2023-05-14T02:38:01.250Z,100011.47
2023-05-14T02:40:29.828Z,100015.69
2023-05-14T02:42:58.326Z,100011.16
2023-05-14T02:45:26.786Z,100020.22
2023-05-14T02:47:56.602Z,100010.84
2023-05-14T02:50:25.362Z,100012.97
2023-05-14T02:52:54.075Z,100016.69
2023-05-14T02:55:23.113Z,100016.59
2023-05-14T02:57:53.221Z,100006.47
2023-05-14T03:00:22.343Z,100012.84
2023-05-14T03:02:51.498Z,100011.72
2023-05-14T03:05:21.845Z,100018.91
2023-05-14T03:07:53.639Z,99996.25
2023-05-14T03:10:22.394Z,100008.97
2023-05-14T03:12:50.872Z,100000.44
2023-05-14T03:15:19.446Z,100008.69
2023-05-14T03:17:47.870Z,100016.09
2023-05-14T03:20:17.398Z,100012.06
2023-05-14T03:22:47.254Z,100008.06
2023-05-14T03:25:15.912Z,100021.34
2023-05-14T03:27:44.348Z,100009.34
2023-05-14T03:30:13.766Z,100010.63
2023-05-14T03:32:42.926Z,100013.75
2023-05-14T03:35:11.616Z,100004.44
2023-05-14T03:37:39.991Z,100012.91
2023-05-14T03:40:11.323Z,100013.69
2023-05-14T03:42:39.841Z,100012.31
2023-05-14T03:45:10.584Z,100019.75
2023-05-14T03:47:39.096Z,100001.38
2023-05-14T03:50:09.722Z,100014.91
2023-05-14T03:52:38.154Z,100012.75
2023-05-14T03:55:07.827Z,100011.13
2023-05-14T03:57:37.876Z,100010.03
2023-05-14T04:00:07.893Z,100019.81
2023-05-14T04:02:45.139Z,100015.81
2023-05-14T04:05:13.730Z,100021.13
2023-05-14T04:07:42.221Z,100012.59
2023-05-14T04:10:11.489Z,100003.47
2023-05-14T04:12:41.514Z,100005.34
2023-05-14T04:15:12.003Z,100002.34
2023-05-14T04:17:40.567Z,100008.72
2023-05-14T04:20:10.734Z,100013.22
2023-05-14T04:22:39.373Z,100008.16
2023-05-14T04:25:09.126Z,100011.06
2023-05-14T04:27:37.556Z,100007.56
2023-05-14T04:30:09.694Z,100015.00
2023-05-14T04:32:38.240Z,100012.56
2023-05-14T04:35:09.246Z,100001.38
2023-05-14T04:37:37.750Z,100001.59
2023-05-14T04:40:08.071Z,100008.75
2023-05-14T04:42:36.559Z,100008.22
2023-05-14T04:45:07.501Z,100007.63
2023-05-14T04:47:36.336Z,100003.13
2023-05-14T04:50:05.392Z,100012.94
2023-05-14T04:52:34.530Z,100002.00
2023-05-14T04:55:03.147Z,100011.59
2023-05-14T04:57:31.627Z,100011.59
2023-05-14T05:00:00.122Z,100020.59
2023-05-14T05:02:29.920Z,100019.78
2023-05-14T05:04:58.381Z,100012.06
2023-05-14T05:07:26.849Z,100012.28
2023-05-14T05:09:55.328Z,100017.59
2023-05-14T05:12:24.030Z,100013.34
2023-05-14T05:14:52.481Z,100009.31
2023-05-14T05:17:21.055Z,100012.75
2023-05-14T05:19:51.115Z,100012.75
2023-05-14T05:22:20.571Z,100012.75
2023-05-14T05:24:50.018Z,100015.19
2023-05-14T05:27:18.593Z,100015.41
2023-05-14T05:29:47.058Z,100013.34
2023-05-14T05:32:15.608Z,100019.47
2023-05-14T05:34:44.203Z,100012.28
2023-05-14T05:37:14.989Z,100008.84
2023-05-14T05:39:43.354Z,100012.28
2023-05-14T05:42:11.739Z,100023.50
2023-05-14T05:44:40.128Z,100016.91
2023-05-14T05:47:08.658Z,100016.06
2023-05-14T05:49:37.710Z,100021.72
2023-05-14T05:52:06.874Z,100018.25
2023-05-14T05:54:36.609Z,100017.22
2023-05-14T05:57:05.329Z,100014.31
2023-05-14T05:59:33.735Z,100020.44
2023-05-14T06:02:02.110Z,100009.56
2023-05-14T06:04:30.517Z,100011.19
2023-05-14T06:06:58.950Z,100010.94
2023-05-14T06:09:27.341Z,100009.69
2023-05-14T06:11:57.064Z,99999.06
2023-05-14T06:14:25.430Z,100011.88
2023-05-14T06:16:53.987Z,100008.97
2023-05-14T06:19:24.042Z,100002.59
2023-05-14T06:21:52.364Z,100003.41
2023-05-14T06:24:21.336Z,100001.09
2023-05-14T06:26:49.989Z,100006.72
2023-05-14T06:29:19.751Z,100003.56
2023-05-14T06:31:48.561Z,100009.19
2023-05-14T06:34:16.949Z,100006.06
2023-05-14T06:36:45.294Z,100014.34
2023-05-14T06:39:13.685Z,100001.38
2023-05-14T06:41:42.043Z,100005.94
2023-05-14T06:44:16.064Z,100004.94
2023-05-14T06:46:45.832Z,100001.53
2023-05-14T06:49:14.368Z,99999.19
2023-05-14T06:51:42.881Z,99992.91
2023-05-14T06:54:11.294Z,99994.25
2023-05-14T06:56:39.996Z,99989.00
2023-05-14T06:59:08.603Z,99988.28
2023-05-14T07:01:37.350Z,99984.63
2023-05-14T07:04:07.310Z,99985.75
2023-05-14T07:06:35.693Z,99984.47
2023-05-14T07:09:04.666Z,99985.31
2023-05-14T07:11:33.495Z,99972.81
2023-05-14T07:14:01.893Z,99981.09
2023-05-14T07:16:30.475Z,99979.56
2023-05-14T07:18:58.934Z,99968.41
2023-05-14T07:21:29.101Z,99973.81
2023-05-14T07:23:57.502Z,99969.66
2023-05-14T07:26:26.391Z,99966.50
2023-05-14T07:28:54.805Z,99960.63
2023-05-14T07:31:23.339Z,99966.84
2023-05-14T07:33:51.703Z,99954.91
2023-05-14T07:36:20.159Z,99957.06
2023-05-14T07:38:49.971Z,99950.41
2023-05-14T07:41:18.503Z,99952.59
2023-05-14T07:43:46.966Z,99941.97
2023-05-14T07:46:16.571Z,99927.13
2023-05-14T07:48:44.999Z,99934.34
2023-05-14T07:51:13.433Z,99938.69
2023-05-14T07:53:41.748Z,99931.00
2023-05-14T07:56:11.556Z,99928.38
2023-05-14T07:58:39.872Z,99940.69
2023-05-14T08:01:09.267Z,99947.13
2023-05-14T08:03:37.729Z,99935.97
2023-05-14T08:06:06.569Z,99926.63
2023-05-14T08:08:35.064Z,99936.25
2023-05-14T08:11:04.552Z,99920.31
2023-05-14T08:13:34.393Z,99933.66
2023-05-14T08:16:02.893Z,99919.59
2023-05-14T08:18:31.357Z,99926.53
2023-05-14T08:20:59.728Z,99912.72
2023-05-14T08:23:28.718Z,99919.97
2023-05-14T08:25:57.070Z,99920.53
2023-05-14T08:28:25.386Z,99920.03
2023-05-14T08:30:55.276Z,99915.78
2023-05-14T08:33:23.678Z,99916.63
2023-05-14T08:35:54.186Z,99921.44
2023-05-14T08:38:22.702Z,99904.69
2023-05-14T08:40:58.223Z,99913.78
2023-05-14T08:43:32.778Z,99913.78
2023-05-14T08:46:07.089Z,99909.53
2023-05-14T08:48:36.173Z,99913.84
2023-05-14T08:51:05.314Z,99910.16
2023-05-14T08:53:33.720Z,99910.97
2023-05-14T08:56:03.123Z,99908.06
2023-05-14T08:58:31.561Z,99905.41
2023-05-14T09:01:01.567Z,99903.31
2023-05-14T09:03:31.117Z,99911.38
2023-05-14T09:06:00.452Z,99895.63
2023-05-14T09:08:28.888Z,99899.09
2023-05-14T09:10:57.256Z,99893.56
2023-05-14T09:13:28.083Z,99893.84
2023-05-14T09:15:57.348Z,99896.53
2023-05-14T09:18:27.283Z,99889.59
2023-05-14T09:20:55.880Z,99898.16
2023-05-14T09:23:27.538Z,99896.56
2023-05-14T09:25:56.239Z,99898.72
2023-05-14T09:28:28.032Z,99894.97
2023-05-14T09:30:56.710Z,99889.38
2023-05-14T09:33:31.037Z,99893.09
2023-05-14T09:36:03.688Z,99882.69
2023-05-14T09:38:32.750Z,99886.19
2023-05-14T09:41:01.875Z,99887.78
2023-05-14T09:43:30.212Z,99887.00
2023-05-14T09:45:58.628Z,99884.34
2023-05-14T09:48:27.266Z,99888.88
2023-05-14T09:50:57.051Z,99891.56
2023-05-14T09:53:26.117Z,99889.16
2023-05-14T09:55:54.850Z,99888.38
2023-05-14T09:58:23.222Z,99885.69
2023-05-14T10:00:53.169Z,99879.00
2023-05-14T10:03:23.623Z,99870.72
2023-05-14T10:05:52.547Z,99875.31
2023-05-14T10:08:28.500Z,99873.94
2023-05-14T10:10:57.594Z,99875.28
2023-05-14T10:13:32.217Z,99876.63
2023-05-14T10:16:10.534Z,99876.63
2023-05-14T10:18:46.733Z,99883.81
2023-05-14T10:21:16.513Z,99879.56
2023-05-14T10:23:46.955Z,99885.44
2023-05-14T10:26:16.196Z,99882.22
2023-05-14T10:28:45.231Z,99886.25
2023-05-14T10:31:14.609Z,99875.56
2023-05-14T10:33:51.005Z,99873.13
2023-05-14T10:36:19.692Z,99873.13
2023-05-14T10:38:58.039Z,99871.53
2023-05-14T10:41:26.462Z,99877.69
2023-05-14T10:43:54.936Z,99878.19
2023-05-14T10:46:23.429Z,99879.00
2023-05-14T10:48:52.021Z,99879.53
2023-05-14T10:51:23.008Z,99876.88
2023-05-14T10:53:53.736Z,99874.19
2023-05-14T10:56:22.618Z,99874.72
2023-05-14T10:58:51.791Z,99873.91
2023-05-14T11:01:20.200Z,99872.03
2023-05-14T11:03:48.671Z,99867.78
2023-05-14T11:06:17.706Z,99871.53
2023-05-14T11:08:46.689Z,99874.19
2023-05-14T11:11:19.200Z,99864.59
2023-05-14T11:13:48.197Z,99863.22
2023-05-14T11:16:23.565Z,99861.63
2023-05-14T11:19:04.655Z,99873.41
2023-05-14T11:21:38.385Z,99869.09
2023-05-14T11:24:07.791Z,99859.25
2023-05-14T11:26:37.603Z,99861.63
2023-05-14T11:29:07.127Z,99858.66
2023-05-14T11:31:36.903Z,99856.81
2023-05-14T11:34:06.924Z,99860.81
2023-05-14T11:36:38.369Z,99852.78
2023-05-14T11:39:08.029Z,99861.88
2023-05-14T11:41:38.018Z,99855.19
2023-05-14T11:44:08.562Z,99855.72
2023-05-14T11:46:37.562Z,99860.00
2023-05-14T11:49:06.679Z,99852.78
2023-05-14T11:51:35.218Z,99856.78
2023-05-14T11:54:04.071Z,99850.91
2023-05-14T11:56:32.622Z,99861.03
2023-05-14T11:59:02.366Z,99840.44
2023-05-14T12:01:34.422Z,99840.16
2023-05-14T12:04:02.807Z,99842.84
2023-05-14T12:06:33.267Z,99837.50
2023-05-14T12:09:01.612Z,99845.22
2023-05-14T12:11:33.048Z,99841.50
2023-05-14T12:14:02.885Z,99834.53
2023-05-14T12:16:33.830Z,99834.00
2023-05-14T12:19:03.512Z,99834.50
2023-05-14T12:21:32.230Z,99828.06
2023-05-14T12:24:00.953Z,99827.81
2023-05-14T12:26:29.450Z,99826.47
2023-05-14T12:29:02.868Z,99818.16
2023-05-14T12:31:31.485Z,99824.31
2023-05-14T12:33:59.872Z,99820.25
2023-05-14T12:36:32.612Z,99803.66
2023-05-14T12:39:03.667Z,99801.72
2023-05-14T12:41:32.118Z,99800.91
2023-05-14T12:44:04.055Z,99797.94
2023-05-14T12:46:32.577Z,99795.22
2023-05-14T12:49:01.076Z,99803.44
2023-05-14T12:51:29.921Z,99791.63
2023-05-14T12:53:58.260Z,99797.78
2023-05-14T12:56:56.141Z,99783.00
2023-05-14T12:59:25.889Z,99783.53
2023-05-14T13:01:54.248Z,99789.94
2023-05-14T13:04:22.927Z,99775.44
2023-05-14T13:06:51.337Z,99786.66
2023-05-14T13:09:19.704Z,99778.56
2023-05-14T13:11:48.351Z,99768.09
2023-05-14T13:14:17.849Z,99765.34
2023-05-14T13:16:48.877Z,99758.59
2023-05-14T13:19:17.392Z,99763.34
2023-05-14T13:21:55.845Z,99767.78
2023-05-14T13:24:25.029Z,99745.75
2023-05-14T13:26:53.399Z,99739.75
2023-05-14T13:29:21.779Z,99743.69
2023-05-14T13:31:51.484Z,99746.84
2023-05-14T13:34:20.137Z,99740.63
2023-05-14T13:36:49.950Z,99727.75
2023-05-14T13:39:22.536Z,99740.06
2023-05-14T13:41:51.746Z,99734.44
2023-05-14T13:44:20.078Z,99731.16
2023-05-14T13:46:48.635Z,99728.13
2023-05-14T13:49:18.540Z,99730.25
2023-05-14T13:51:49.243Z,99720.84
2023-05-14T13:54:18.812Z,99715.69
2023-05-14T13:56:47.298Z,99704.66
2023-05-14T13:59:15.799Z,99701.09
2023-05-14T14:01:44.271Z,99698.84
2023-05-14T14:04:12.660Z,99692.34
2023-05-14T14:06:42.403Z,99687.50
2023-05-14T14:09:10.973Z,99678.34
2023-05-14T14:11:39.329Z,99684.22
2023-05-14T14:14:07.764Z,99687.72
2023-05-14T14:16:36.197Z,99688.50
2023-05-14T14:19:04.786Z,99679.88
2023-05-14T14:21:33.305Z,99672.53
2023-05-14T14:24:17.885Z,99670.84
2023-05-14T14:26:46.293Z,99650.13
2023-05-14T14:29:14.689Z,99660.53
2023-05-14T14:31:43.602Z,99652.75
2023-05-14T14:34:12.065Z,99654.56
2023-05-14T14:36:40.385Z,99647.22
2023-05-14T14:39:08.865Z,99650.91
2023-05-14T14:41:38.671Z,99646.09
2023-05-14T14:44:07.023Z,99652.78
2023-05-14T14:46:36.444Z,99644.53
2023-05-14T14:49:05.032Z,99639.16
2023-05-14T14:51:33.366Z,99641.84
2023-05-14T14:54:05.110Z,99640.16
2023-05-14T14:56:34.595Z,99646.53
2023-05-14T14:59:04.409Z,99640.88
2023-05-14T15:01:32.886Z,99643.25
2023-05-14T15:04:03.788Z,99642.38
2023-05-14T15:06:32.270Z,99634.84
2023-05-14T15:09:00.698Z,99634.25
2023-05-14T15:11:29.637Z,99632.16
2023-05-14T15:13:57.974Z,99633.53
2023-05-14T15:16:27.836Z,99643.47
2023-05-14T15:19:01.615Z,99630.84
2023-05-14T15:21:31.127Z,99634.84
2023-05-14T15:23:59.578Z,99640.41
2023-05-14T15:26:32.674Z,99639.31
2023-05-14T15:29:00.983Z,99635.25
2023-05-14T15:31:30.822Z,99645.69
2023-05-14T15:33:59.569Z,99643.72
2023-05-14T15:36:28.655Z,99646.94
2023-05-14T15:38:57.029Z,99642.56
2023-05-14T15:41:28.725Z,99640.06
2023-05-14T15:43:58.600Z,99633.81
2023-05-14T15:46:27.019Z,99630.81
2023-05-14T15:48:56.832Z,99630.22
2023-05-14T15:51:25.224Z,99632.31
2023-05-14T15:53:54.927Z,99627.25
2023-05-14T15:56:23.726Z,99622.66
2023-05-14T15:58:52.117Z,99621.25
2023-05-14T16:01:20.644Z,99622.28
2023-05-14T16:03:49.279Z,99622.75
2023-05-14T16:06:19.147Z,99608.53
2023-05-14T16:08:47.747Z,99618.75
2023-05-14T16:11:16.241Z,99616.69
2023-05-14T16:13:44.586Z,99615.09
2023-05-14T16:16:12.985Z,99608.13
2023-05-14T16:18:42.862Z,99620.19
2023-05-14T16:21:11.520Z,99601.38
2023-05-14T16:23:41.280Z,99598.38
2023-05-14T16:26:09.710Z,99598.88
2023-05-14T16:28:41.167Z,99594.81
2023-05-14T16:31:09.561Z,99601.50
2023-05-14T16:33:37.931Z,99602.00
2023-05-14T16:36:07.156Z,99607.38
2023-05-14T16:38:38.569Z,99598.50
2023-05-14T16:41:11.099Z,99597.41
2023-05-14T16:43:39.421Z,99596.03
2023-05-14T16:46:07.966Z,99591.34
2023-05-14T16:48:36.462Z,99585.03
2023-05-14T16:51:05.132Z,99586.22
2023-05-14T16:53:33.541Z,99588.84
2023-05-14T16:56:01.926Z,99585.25
2023-05-14T16:58:31.853Z,99591.13
2023-05-14T17:01:00.522Z,99589.91
2023-05-14T17:03:29.254Z,99592.78
2023-05-14T17:05:57.944Z,99594.69
2023-05-14T17:08:26.310Z,99586.81
2023-05-14T17:10:54.630Z,99593.47
2023-05-14T17:13:23.008Z,99596.47
2023-05-14T17:15:52.818Z,99593.16
2023-05-14T17:18:21.321Z,99595.25
2023-05-14T17:20:49.785Z,99588.50
2023-05-14T17:23:19.217Z,99609.41
2023-05-14T17:25:47.742Z,99599.72
2023-05-14T17:28:16.164Z,99601.03
2023-05-14T17:30:44.515Z,99596.44
2023-05-14T17:33:14.319Z,99594.84
2023-05-14T17:35:43.944Z,99597.53
2023-05-14T17:38:12.457Z,99605.09
2023-05-14T17:40:40.936Z,99614.28
2023-05-14T17:43:10.381Z,99609.50
2023-05-14T17:45:50.311Z,99609.03
2023-05-14T17:48:24.002Z,99609.63
2023-05-14T17:50:52.563Z,99610.72
2023-05-14T17:53:21.114Z,99622.28
2023-05-14T17:55:50.217Z,99610.22
2023-05-14T17:59:03.869Z,99625.97
2023-05-14T18:01:32.423Z,99616.91
2023-05-14T18:04:02.218Z,99623.09
2023-05-14T18:06:30.994Z,99630.34
2023-05-14T18:08:59.404Z,99637.44
2023-05-14T18:11:32.728Z,99634.63
2023-05-14T18:14:01.166Z,99640.91
2023-05-14T18:16:29.995Z,99653.97
2023-05-14T18:19:00.275Z,99652.75
2023-05-14T18:21:30.095Z,99659.91
2023-05-14T18:23:58.449Z,99658.41
2023-05-14T18:26:26.796Z,99672.22
2023-05-14T18:28:55.153Z,99672.09
2023-05-14T18:31:23.483Z,99679.44
2023-05-14T18:33:51.822Z,99682.50
2023-05-14T18:36:20.208Z,99688.75
2023-05-14T18:38:49.892Z,99675.50
2023-05-14T18:41:18.200Z,99691.59
2023-05-14T18:43:46.532Z,99690.59
2023-05-14T18:46:15.158Z,99700.34
2023-05-14T18:48:43.526Z,99696.22
2023-05-14T18:51:12.427Z,99691.19
2023-05-14T18:53:40.757Z,99699.09
2023-05-14T18:56:11.325Z,99693.31
2023-05-14T18:58:39.763Z,99685.59
2023-05-14T19:01:08.153Z,99691.84
2023-05-14T19:03:36.602Z,99694.31
2023-05-14T19:06:05.180Z,99693.88
2023-05-14T19:08:33.517Z,99691.47
2023-05-14T19:11:01.841Z,99688.06
2023-05-14T19:13:31.502Z,99679.06
2023-05-14T19:15:59.890Z,99686.59
2023-05-14T19:18:28.517Z,99690.91
2023-05-14T19:20:57.255Z,99687.22
2023-05-14T19:23:25.575Z,99697.72
2023-05-14T19:25:53.868Z,99707.69
2023-05-14T19:28:22.200Z,99703.47
2023-05-14T19:30:53.071Z,99723.09
2023-05-14T19:33:21.357Z,99707.88
2023-05-14T19:35:49.704Z,99713.28
2023-05-14T19:38:19.164Z,99720.59
2023-05-14T19:40:47.494Z,99724.91
2023-05-14T19:43:15.843Z,99721.19
2023-05-14T19:45:45.804Z,99724.75
2023-05-14T19:48:16.037Z,99735.28
2023-05-14T19:50:44.338Z,99728.06
2023-05-14T19:53:12.718Z,99727.34
2023-05-14T19:55:41.688Z,99731.94
2023-05-14T19:58:10.234Z,99726.63
2023-05-14T20:00:38.609Z,99733.38
2023-05-14T20:03:07.090Z,99729.91
2023-05-14T20:05:36.898Z,99729.91
2023-05-14T20:08:07.569Z,99723.53
2023-05-14T20:10:35.840Z,99724.09
2023-05-14T20:13:04.271Z,99731.88
2023-05-14T20:15:32.570Z,99728.16
2023-05-14T20:18:01.082Z,99731.13
2023-05-14T20:20:32.106Z,99734.66
2023-05-14T20:23:02.748Z,99739.78
2023-05-14T20:25:32.716Z,99739.53
2023-05-14T20:28:01.566Z,99742.75
2023-05-14T20:30:30.024Z,99739.84
2023-05-14T20:32:58.699Z,99745.75
2023-05-14T20:35:27.490Z,99732.13
2023-05-14T20:37:56.282Z,99728.91
2023-05-14T20:40:26.391Z,99732.13
2023-05-14T20:42:54.779Z,99721.47
2023-05-14T20:45:23.453Z,99723.88
2023-05-14T20:47:52.701Z,99723.66
2023-05-14T20:50:21.587Z,99722.31
2023-05-14T20:52:49.952Z,99721.53
2023-05-14T20:55:18.992Z,99711.38
2023-05-14T20:57:49.641Z,99705.78
2023-05-14T21:00:19.313Z,99706.31
2023-05-14T21:02:49.105Z,99698.59
2023-05-14T21:05:18.542Z,99689.22
2023-05-14T21:07:46.820Z,99687.63
2023-05-14T21:10:15.169Z,99680.13
2023-05-14T21:12:44.725Z,99677.22
2023-05-14T21:15:14.611Z,99673.50
2023-05-14T21:17:42.986Z,99681.03
2023-05-14T21:20:13.586Z,99665.53
2023-05-14T21:22:41.954Z,99674.38
2023-05-14T21:25:10.946Z,99670.91
2023-05-14T21:27:39.282Z,99668.78
2023-05-14T21:30:09.536Z,99672.25
2023-05-14T21:32:39.334Z,99673.63
2023-05-14T21:35:08.587Z,99670.44
2023-05-14T21:37:39.322Z,99665.63
2023-05-14T21:40:12.173Z,99653.88
2023-05-14T21:42:40.817Z,99645.34
2023-05-14T21:45:10.453Z,99638.13
2023-05-14T21:47:40.426Z,99637.88
2023-05-14T21:50:09.989Z,99643.78
2023-05-14T21:52:38.974Z,99641.41
2023-05-14T21:55:08.184Z,99639.81
2023-05-14T21:57:36.567Z,99637.94
2023-05-14T22:00:08.241Z,99641.97
2023-05-14T22:02:36.562Z,99631.03
2023-05-14T22:05:07.216Z,99633.69
2023-05-14T22:07:35.525Z,99642.25
2023-05-14T22:10:03.961Z,99658.59
2023-05-14T22:12:32.300Z,99651.09
2023-05-14T22:15:00.619Z,99661.53
2023-05-14T22:17:29.127Z,99660.72
2023-05-14T22:19:57.601Z,99665.25
2023-05-14T22:22:27.361Z,99667.69
2023-05-14T22:24:56.470Z,99667.41
2023-05-14T22:27:24.834Z,99657.81
2023-05-14T22:29:55.185Z,99652.47
2023-05-14T22:32:23.525Z,99656.75
2023-05-14T22:34:51.969Z,99655.94
2023-05-14T22:37:20.346Z,99647.44
2023-05-14T22:39:50.053Z,99662.09
2023-05-14T22:42:20.193Z,99646.09
2023-05-14T22:44:48.649Z,99647.72
2023-05-14T22:47:17.024Z,99648.25
2023-05-14T22:49:45.370Z,99654.13
2023-05-14T22:52:13.738Z,99640.25
2023-05-14T22:54:42.398Z,99643.97
2023-05-14T22:57:12.117Z,99638.94
2023-05-14T22:59:40.483Z,99633.34
2023-05-14T23:02:08.844Z,99636.53
2023-05-14T23:04:37.299Z,99632.28
2023-05-14T23:07:06.101Z,99627.47
2023-05-14T23:09:34.452Z,99620.78
2023-05-14T23:12:02.890Z,99620.53
2023-05-14T23:14:32.581Z,99616.00
2023-05-14T23:17:00.964Z,99614.41
2023-05-14T23:19:29.427Z,99620.56
2023-05-14T23:21:58.319Z,99616.53
2023-05-14T23:24:27.120Z,99619.75
2023-05-14T23:26:55.855Z,99621.06
2023-05-14T23:29:24.160Z,99622.44
2023-05-14T23:31:53.910Z,99628.81
2023-05-14T23:34:22.266Z,99621.88
2023-05-14T23:36:50.881Z,99624.84
2023-05-14T23:39:19.323Z,99633.88
2023-05-14T23:41:47.674Z,99628.84
2023-05-14T23:44:16.235Z,99613.34
2023-05-14T23:46:44.983Z,99617.34
2023-05-14T23:49:14.812Z,99615.22
2023-05-14T23:51:43.183Z,99618.13
2023-05-14T23:54:11.864Z,99627.22
2023-05-14T23:56:40.683Z,99623.19
2023-05-14T23:59:09.080Z,99622.69
